Time;durP1;ratioP1;P1;durP2;ratioP2;P2;SDS_P1;SDS_P2;PMS_P1;PMS_P2;Temp;Humidity;BMP_temperature;BMP_pressure;BME280_temperature;BME280_humidity;BME280_pressure;Samples;Min_cycle;Max_cycle;Signal;HPM_P1;HPM_P2
2020/12/13 00:01:41;;;;;;;5.00;4.20;;;8.90;99.90;;;;;;5130075;27;20211;-77
2020/12/13 00:04:07;;;;;;;4.55;4.10;;;8.90;99.90;;;;;;5132858;27;20204;-77
2020/12/13 00:06:34;;;;;;;5.32;4.43;;;8.90;99.90;;;;;;5127807;27;20529;-77
2020/12/13 00:09:04;;;;;;;9.18;4.93;;;9.00;99.90;;;;;;5114189;27;20189;-76
2020/12/13 00:11:30;;;;;;;6.47;5.05;;;8.90;99.90;;;;;;5113094;27;20192;-78
2020/12/13 00:13:57;;;;;;;6.05;4.95;;;9.00;99.90;;;;;;5112729;28;20257;-77
2020/12/13 00:16:23;;;;;;;5.55;4.80;;;9.00;99.90;;;;;;5118021;27;20548;-78
2020/12/13 00:18:49;;;;;;;8.05;6.00;;;8.90;99.90;;;;;;5128647;27;20205;-78
2020/12/13 00:21:17;;;;;;;6.85;5.22;;;8.90;99.90;;;;;;5112751;28;20207;-78
2020/12/13 00:23:44;;;;;;;4.22;3.83;;;8.90;99.90;;;;;;5112650;28;20273;-78
2020/12/13 00:26:11;;;;;;;5.40;4.90;;;9.00;99.90;;;;;;5121434;27;20192;-78
2020/12/13 00:28:38;;;;;;;5.47;4.60;;;8.90;99.90;;;;;;5125592;27;20196;-78
2020/12/13 00:31:05;;;;;;;5.68;4.35;;;8.90;99.90;;;;;;5133301;27;20647;-77
2020/12/13 00:33:32;;;;;;;4.53;3.60;;;8.90;99.90;;;;;;5133295;27;20200;-78
2020/12/13 00:35:58;;;;;;;4.60;3.70;;;9.00;99.90;;;;;;5130800;27;20196;-77
2020/12/13 00:38:25;;;;;;;6.30;5.25;;;9.00;99.90;;;;;;5132380;27;20235;-77
2020/12/13 00:40:51;;;;;;;6.25;4.55;;;9.00;99.90;;;;;;5133497;27;20184;-77
2020/12/13 00:43:19;;;;;;;5.63;4.65;;;9.00;99.90;;;;;;5132821;27;20200;-77
2020/12/13 00:45:45;;;;;;;8.52;4.20;;;9.00;99.90;;;;;;5116769;27;20624;-77
2020/12/13 00:48:11;;;;;;;6.95;4.90;;;9.00;99.90;;;;;;5124515;27;20204;-77
2020/12/13 00:50:38;;;;;;;5.65;4.70;;;9.00;99.90;;;;;;5121386;27;20192;-77
2020/12/13 00:53:05;;;;;;;5.55;4.55;;;9.00;99.90;;;;;;5115974;27;20197;-77
2020/12/13 00:55:31;;;;;;;4.30;3.85;;;9.00;99.90;;;;;;5122222;27;20249;-77
2020/12/13 00:57:57;;;;;;;5.97;5.03;;;9.00;99.90;;;;;;5112107;28;20181;-77
2020/12/13 01:00:25;;;;;;;8.77;4.88;;;8.90;99.90;;;;;;5112575;28;20200;-78
2020/12/13 01:02:52;;;;;;;4.70;4.22;;;9.00;99.90;;;;;;5112168;28;20201;-77
2020/12/13 01:05:19;;;;;;;6.28;4.97;;;9.00;99.90;;;;;;5121175;28;20280;-77
2020/12/13 01:07:45;;;;;;;7.20;4.35;;;9.00;99.90;;;;;;5126158;27;20189;-77
2020/12/13 01:10:11;;;;;;;7.28;5.10;;;9.00;99.90;;;;;;5132752;27;20206;-77
2020/12/13 01:12:37;;;;;;;7.32;5.60;;;9.00;99.90;;;;;;5114990;27;20211;-77
2020/12/13 01:15:06;;;;;;;5.57;4.43;;;9.00;99.90;;;;;;5124817;27;20201;-78
2020/12/13 01:17:33;;;;;;;5.47;4.85;;;9.00;99.90;;;;;;5133666;27;20192;-78
2020/12/13 01:20:00;;;;;;;7.05;5.90;;;9.00;99.90;;;;;;5136657;27;20216;-78
2020/12/13 01:22:26;;;;;;;6.07;4.68;;;9.00;99.90;;;;;;5124171;27;20189;-78
2020/12/13 01:24:52;;;;;;;6.07;4.40;;;9.00;99.90;;;;;;5126623;27;20196;-78
2020/12/13 01:27:19;;;;;;;7.03;5.22;;;9.00;99.90;;;;;;5116141;28;20189;-78
2020/12/13 01:29:45;;;;;;;7.85;5.07;;;9.00;99.90;;;;;;5116518;27;20196;-78
2020/12/13 01:32:11;;;;;;;6.85;5.15;;;9.00;99.90;;;;;;5115906;28;20209;-78
2020/12/13 01:34:38;;;;;;;7.80;4.35;;;9.00;99.90;;;;;;5115764;28;20213;-76
2020/12/13 01:37:04;;;;;;;5.28;4.35;;;9.00;99.90;;;;;;5116253;27;20624;-78
2020/12/13 01:39:31;;;;;;;10.55;6.63;;;9.00;99.90;;;;;;5116520;27;20224;-79
2020/12/13 01:41:57;;;;;;;8.90;5.22;;;9.00;99.90;;;;;;5135176;27;20196;-78
2020/12/13 01:44:30;;;;;;;12.25;8.02;;;9.00;99.90;;;;;;5116230;27;20212;-78
2020/12/13 01:46:56;;;;;;;9.85;6.72;;;9.00;99.90;;;;;;5116106;28;20197;-77
2020/12/13 01:49:27;;;;;;;8.90;6.28;;;9.00;99.90;;;;;;5116272;27;20188;-78
2020/12/13 01:52:07;;;;;;;9.93;7.60;;;9.00;99.90;;;;;;5115795;27;20544;-78
2020/12/13 01:54:35;;;;;;;9.13;5.75;;;9.00;99.90;;;;;;5115748;28;20192;-77
2020/12/13 01:57:02;;;;;;;10.02;5.55;;;9.00;99.90;;;;;;5115511;27;20576;-78
2020/12/13 01:59:30;;;;;;;8.23;6.63;;;9.00;99.90;;;;;;5115573;28;20222;-78
2020/12/13 02:01:58;;;;;;;11.02;6.35;;;9.00;99.90;;;;;;5115576;28;20218;-78
2020/12/13 02:04:26;;;;;;;9.60;7.22;;;9.00;99.90;;;;;;5116207;27;20223;-78
2020/12/13 02:06:54;;;;;;;11.48;7.78;;;9.00;99.90;;;;;;5131531;27;20203;-78
2020/12/13 02:09:22;;;;;;;10.43;6.20;;;9.00;99.90;;;;;;5135886;27;20524;-78
2020/12/13 02:11:48;;;;;;;10.85;6.38;;;9.00;99.90;;;;;;5132316;27;20196;-78
2020/12/13 02:14:14;;;;;;;13.32;7.60;;;9.10;99.90;;;;;;5115420;28;20197;-78
2020/12/13 02:16:43;;;;;;;6.93;5.45;;;9.00;99.90;;;;;;5130290;27;20211;-79
2020/12/13 02:19:11;;;;;;;7.57;6.35;;;9.00;99.90;;;;;;5135048;27;20212;-77
2020/12/13 02:21:42;;;;;;;10.15;6.13;;;9.00;99.90;;;;;;5135519;27;20196;-78
2020/12/13 02:24:09;;;;;;;9.05;6.50;;;9.00;99.90;;;;;;5130707;27;20220;-78
2020/12/13 02:26:40;;;;;;;9.75;6.20;;;9.10;99.90;;;;;;5114008;28;20205;-77
2020/12/13 02:29:06;;;;;;;8.40;6.10;;;9.10;99.90;;;;;;5115071;28;20566;-78
2020/12/13 02:31:32;;;;;;;11.27;6.82;;;9.10;99.90;;;;;;5114766;27;20204;-78
2020/12/13 02:33:59;;;;;;;11.48;6.22;;;9.10;99.90;;;;;;5118416;27;20188;-78
2020/12/13 02:36:25;;;;;;;9.68;7.03;;;9.00;99.90;;;;;;5135523;27;20191;-78
2020/12/13 02:38:51;;;;;;;11.32;7.35;;;9.10;99.90;;;;;;5120161;27;20225;-78
2020/12/13 02:41:18;;;;;;;8.50;6.25;;;9.10;99.90;;;;;;5120604;27;20203;-78
2020/12/13 02:43:45;;;;;;;7.95;5.38;;;9.10;99.90;;;;;;5135459;27;20199;-78
2020/12/13 02:46:11;;;;;;;8.63;5.70;;;9.10;99.90;;;;;;5131570;27;20199;-78
2020/12/13 02:48:37;;;;;;;9.85;5.93;;;9.10;99.90;;;;;;5129354;27;22230;-79
2020/12/13 02:51:03;;;;;;;13.07;7.50;;;9.10;99.90;;;;;;5114422;28;20197;-79
2020/12/13 02:53:30;;;;;;;7.80;5.45;;;9.10;99.90;;;;;;5114409;28;20199;-79
2020/12/13 02:55:56;;;;;;;11.52;7.55;;;9.10;99.90;;;;;;5114182;27;20285;-79
2020/12/13 02:58:23;;;;;;;11.68;7.60;;;9.10;99.90;;;;;;5114151;28;20588;-79
2020/12/13 03:00:49;;;;;;;14.05;8.32;;;9.10;99.90;;;;;;5116772;27;20197;-79
2020/12/13 03:03:15;;;;;;;10.40;7.68;;;9.10;99.90;;;;;;5134919;27;20204;-79
2020/12/13 03:05:42;;;;;;;9.20;6.90;;;9.10;99.90;;;;;;5127960;27;20192;-78
2020/12/13 03:08:08;;;;;;;9.15;6.90;;;9.20;99.90;;;;;;5125542;27;20370;-80
2020/12/13 03:10:34;;;;;;;10.48;6.85;;;9.10;99.90;;;;;;5114223;27;20258;-79
2020/12/13 03:13:01;;;;;;;9.32;6.45;;;9.10;99.90;;;;;;5114009;28;20200;-79
2020/12/13 03:15:28;;;;;;;10.02;6.88;;;9.10;99.90;;;;;;5113824;27;20196;-79
2020/12/13 03:17:54;;;;;;;7.93;5.95;;;9.10;99.90;;;;;;5118944;27;20188;-79
2020/12/13 03:20:20;;;;;;;9.50;7.20;;;9.10;99.90;;;;;;5134072;27;20235;-79
2020/12/13 03:22:46;;;;;;;9.88;7.25;;;9.10;99.90;;;;;;5128408;27;20200;-79
2020/12/13 03:25:13;;;;;;;12.15;8.38;;;9.10;99.90;;;;;;5130320;27;20193;-80
2020/12/13 03:27:40;;;;;;;14.23;8.10;;;9.10;99.90;;;;;;5132856;27;20208;-80
2020/12/13 03:30:06;;;;;;;13.20;8.38;;;9.10;99.90;;;;;;5126846;27;20197;-78
2020/12/13 03:32:36;;;;;;;18.75;10.13;;;9.10;99.90;;;;;;5113742;28;20197;-77
2020/12/13 03:35:03;;;;;;;10.95;7.35;;;9.10;99.90;;;;;;5113783;28;20196;-77
2020/12/13 03:37:30;;;;;;;13.15;8.30;;;9.10;99.90;;;;;;5118384;27;20188;-79
2020/12/13 03:39:56;;;;;;;13.13;8.65;;;9.10;99.90;;;;;;5133896;27;20266;-79
2020/12/13 03:42:22;;;;;;;18.17;13.13;;;9.10;99.90;;;;;;5133969;27;20196;-78
2020/12/13 03:44:49;;;;;;;12.70;7.85;;;9.20;99.90;;;;;;5120216;27;20197;-79
2020/12/13 03:47:15;;;;;;;11.05;8.38;;;9.20;99.90;;;;;;5113473;28;20200;-79
2020/12/13 03:49:42;;;;;;;13.48;9.27;;;9.10;99.90;;;;;;5132080;27;20195;-79
2020/12/13 03:52:08;;;;;;;11.80;7.75;;;9.10;99.90;;;;;;5113194;28;20643;-79
2020/12/13 03:54:35;;;;;;;11.40;7.80;;;9.10;99.90;;;;;;5113360;28;20639;-79
2020/12/13 03:57:01;;;;;;;12.85;9.23;;;9.10;99.90;;;;;;5112148;28;20200;-79
2020/12/13 03:59:27;;;;;;;15.00;8.40;;;9.10;99.90;;;;;;5112798;28;20782;-77
2020/12/13 04:01:53;;;;;;;12.02;8.43;;;9.10;99.90;;;;;;5113322;28;20201;-77
2020/12/13 04:04:20;;;;;;;13.80;9.40;;;9.10;99.90;;;;;;5113474;27;20197;-80
2020/12/13 04:06:47;;;;;;;16.33;11.52;;;9.20;99.90;;;;;;5131451;27;20188;-79
2020/12/13 04:09:13;;;;;;;15.43;10.32;;;9.20;99.90;;;;;;5128555;27;20189;-80
2020/12/13 04:11:39;;;;;;;18.88;9.65;;;9.20;99.90;;;;;;5112697;28;20200;-79
2020/12/13 04:14:05;;;;;;;13.43;8.82;;;9.20;99.90;;;;;;5112965;27;20188;-79
2020/12/13 04:16:32;;;;;;;15.48;9.60;;;9.20;99.90;;;;;;5113098;28;20189;-79
2020/12/13 04:18:58;;;;;;;21.52;11.98;;;9.20;99.90;;;;;;5114345;27;20298;-79
2020/12/13 04:21:25;;;;;;;11.88;8.35;;;9.20;99.90;;;;;;5117412;27;20197;-79
2020/12/13 04:23:52;;;;;;;18.00;10.70;;;9.20;99.90;;;;;;5113051;27;20200;-79
2020/12/13 04:26:19;;;;;;;14.57;9.50;;;9.20;99.90;;;;;;5112293;28;20952;-79
2020/12/13 04:28:45;;;;;;;15.27;9.30;;;9.20;99.90;;;;;;5129239;27;20188;-79
2020/12/13 04:31:11;;;;;;;13.10;9.65;;;9.20;99.90;;;;;;5133460;27;20196;-79
2020/12/13 04:33:37;;;;;;;15.45;9.43;;;9.20;99.90;;;;;;5130230;27;20196;-79
2020/12/13 04:36:05;;;;;;;15.50;9.98;;;9.20;99.90;;;;;;5112639;28;20195;-79
2020/12/13 04:38:32;;;;;;;20.50;11.88;;;9.20;99.90;;;;;;5128358;27;20226;-79
2020/12/13 04:41:00;;;;;;;17.88;10.55;;;9.20;99.90;;;;;;5133456;27;20210;-77
2020/12/13 04:43:27;;;;;;;13.63;8.57;;;9.20;99.90;;;;;;5112500;27;21032;-78
2020/12/13 04:45:53;;;;;;;14.20;9.43;;;9.20;99.90;;;;;;5112745;28;20281;-79
2020/12/13 04:48:21;;;;;;;20.58;12.18;;;9.20;99.90;;;;;;5114158;27;20203;-79
2020/12/13 04:50:49;;;;;;;18.58;10.70;;;9.20;99.90;;;;;;5111738;28;20205;-79
2020/12/13 04:53:18;;;;;;;15.23;9.50;;;9.20;99.90;;;;;;5112592;28;20534;-79
2020/12/13 04:55:52;;;;;;;14.95;9.63;;;9.20;99.90;;;;;;5112373;28;20199;-79
2020/12/13 04:58:21;;;;;;;15.13;8.80;;;9.20;99.90;;;;;;5132488;28;20191;-78
2020/12/13 05:00:53;;;;;;;15.20;10.88;;;9.20;99.90;;;;;;5132839;28;20200;-77
2020/12/13 05:03:21;;;;;;;10.70;8.77;;;9.30;99.90;;;;;;5115329;27;20192;-79
2020/12/13 05:05:47;;;;;;;15.32;10.90;;;9.20;99.90;;;;;;5124786;28;20200;-78
2020/12/13 05:08:13;;;;;;;13.68;8.88;;;9.20;99.90;;;;;;5129534;27;20196;-78
2020/12/13 05:10:40;;;;;;;17.95;10.75;;;9.20;99.90;;;;;;5133020;27;20199;-78
2020/12/13 05:13:07;;;;;;;15.02;9.27;;;9.30;99.90;;;;;;5132590;27;20213;-79
2020/12/13 05:15:35;;;;;;;13.63;7.50;;;9.20;99.90;;;;;;5133065;27;20206;-78
2020/12/13 05:18:01;;;;;;;15.13;9.15;;;9.20;99.90;;;;;;5119336;27;20197;-79
2020/12/13 05:20:28;;;;;;;15.30;10.07;;;9.30;99.90;;;;;;5111417;28;20220;-78
2020/12/13 05:22:56;;;;;;;14.02;9.27;;;9.20;99.90;;;;;;5111723;28;20205;-78
2020/12/13 05:25:30;;;;;;;14.25;9.98;;;9.30;99.90;;;;;;5112135;28;20256;-78
2020/12/13 05:27:59;;;;;;;16.50;9.82;;;9.30;99.90;;;;;;5113419;28;20197;-78
2020/12/13 05:30:31;;;;;;;11.57;8.88;;;9.30;99.90;;;;;;5112041;28;20620;-78
2020/12/13 05:33:01;;;;;;;13.73;8.85;;;9.30;99.90;;;;;;5111798;28;20197;-79
2020/12/13 05:35:28;;;;;;;14.98;9.85;;;9.30;99.90;;;;;;5112229;28;20207;-80
2020/12/13 05:37:55;;;;;;;20.55;10.30;;;9.30;99.90;;;;;;5112732;28;20189;-80
2020/12/13 05:40:22;;;;;;;12.20;9.57;;;9.20;99.90;;;;;;5112151;28;20336;-80
2020/12/13 05:42:58;;;;;;;15.68;9.57;;;9.30;99.90;;;;;;5112143;28;20188;-80
2020/12/13 05:45:54;;;;;;;11.93;7.82;;;9.30;99.90;;;;;;5111694;28;20192;-79
2020/12/13 05:51:17;;;;;;;16.10;9.07;;;9.30;99.90;;;;;;5111760;28;20283;-79
2020/12/13 05:53:43;;;;;;;14.13;10.13;;;9.30;99.90;;;;;;5114253;28;20208;-79
2020/12/13 05:56:11;;;;;;;14.32;9.15;;;9.30;99.90;;;;;;5125619;28;20283;-79
2020/12/13 05:58:37;;;;;;;13.48;8.93;;;9.30;99.90;;;;;;5132080;27;20196;-80
2020/12/13 06:01:05;;;;;;;11.85;8.15;;;9.30;99.90;;;;;;5132544;27;20200;-79
2020/12/13 06:03:34;;;;;;;10.00;8.40;;;9.30;99.90;;;;;;5118914;27;20196;-79
2020/12/13 06:06:05;;;;;;;17.30;9.73;;;9.30;99.90;;;;;;5129120;27;20204;-80
2020/12/13 06:08:55;;;;;;;16.30;9.48;;;9.30;99.90;;;;;;5116719;27;20205;-79
2020/12/13 06:11:21;;;;;;;13.48;8.32;;;9.30;99.90;;;;;;5115300;27;20189;-78
2020/12/13 06:13:54;;;;;;;13.90;9.70;;;9.30;99.90;;;;;;5115342;28;20196;-79
2020/12/13 06:16:21;;;;;;;10.20;6.97;;;9.30;99.90;;;;;;5120931;27;20565;-78
2020/12/13 06:18:48;;;;;;;14.18;8.82;;;9.30;99.90;;;;;;5135558;27;20299;-78
2020/12/13 06:21:16;;;;;;;13.13;9.35;;;9.30;99.90;;;;;;5134562;27;20223;-78
2020/12/13 06:23:47;;;;;;;11.35;8.13;;;9.30;99.90;;;;;;5122815;27;20199;-78
2020/12/13 06:26:13;;;;;;;16.95;10.60;;;9.30;99.90;;;;;;5115163;28;20204;-77
2020/12/13 06:28:41;;;;;;;14.60;10.18;;;9.30;99.90;;;;;;5115178;27;20200;-79
2020/12/13 06:31:07;;;;;;;16.80;11.48;;;9.30;99.90;;;;;;5114784;28;20204;-79
2020/12/13 06:33:40;;;;;;;15.23;9.90;;;9.30;99.90;;;;;;5114578;27;20192;-80
2020/12/13 06:36:09;;;;;;;20.45;10.63;;;9.30;99.90;;;;;;5114925;28;20200;-80
2020/12/13 06:38:35;;;;;;;17.95;12.70;;;9.30;99.90;;;;;;5115601;27;20228;-79
2020/12/13 06:41:13;;;;;;;14.13;9.57;;;9.30;99.90;;;;;;5115245;27;20206;-80
2020/12/13 06:43:40;;;;;;;20.85;14.10;;;9.30;99.90;;;;;;5114694;28;20276;-80
2020/12/13 06:46:12;;;;;;;17.10;10.40;;;9.30;99.90;;;;;;5124683;27;20308;-79
2020/12/13 06:48:38;;;;;;;15.20;10.60;;;9.30;99.90;;;;;;5135198;27;20226;-79
2020/12/13 06:51:16;;;;;;;15.40;10.85;;;9.30;99.90;;;;;;5122736;27;20193;-80
2020/12/13 06:53:43;;;;;;;17.67;10.20;;;9.30;99.90;;;;;;5114643;28;20192;-79
2020/12/13 06:56:11;;;;;;;14.88;10.75;;;9.30;99.90;;;;;;5114343;28;20200;-79
2020/12/13 06:58:42;;;;;;;17.80;11.23;;;9.30;99.90;;;;;;5114643;28;20196;-78
2020/12/13 07:01:19;;;;;;;20.90;13.20;;;9.30;99.90;;;;;;5114335;27;20200;-79
2020/12/13 07:03:47;;;;;;;21.02;13.05;;;9.30;99.90;;;;;;5114938;27;20199;-79
2020/12/13 07:06:20;;;;;;;19.17;11.90;;;9.30;99.90;;;;;;5131235;27;20206;-78
2020/12/13 07:08:51;;;;;;;19.02;11.88;;;9.30;99.90;;;;;;5134484;27;20917;-79
2020/12/13 07:11:18;;;;;;;23.08;13.27;;;9.30;99.90;;;;;;5133446;27;20192;-77
2020/12/13 07:13:46;;;;;;;22.15;12.80;;;9.30;99.90;;;;;;5134245;27;20192;-78
2020/12/13 07:16:26;;;;;;;15.38;10.60;;;9.30;99.90;;;;;;5116765;27;20617;-79
2020/12/13 07:19:01;;;;;;;19.67;11.88;;;9.30;99.90;;;;;;5118876;27;20207;-79
2020/12/13 07:21:28;;;;;;;20.08;12.90;;;9.30;99.90;;;;;;5117497;27;20728;-80
2020/12/13 07:23:57;;;;;;;18.58;12.55;;;9.30;99.90;;;;;;5119069;27;20212;-81
2020/12/13 07:26:23;;;;;;;19.77;12.23;;;9.40;99.90;;;;;;5132027;27;20192;-82
2020/12/13 07:28:50;;;;;;;19.85;13.15;;;9.40;99.90;;;;;;5127203;27;20200;-81
2020/12/13 07:31:18;;;;;;;17.85;12.35;;;9.40;99.90;;;;;;5120337;27;20966;-82
2020/12/13 07:33:45;;;;;;;20.25;12.75;;;9.40;99.90;;;;;;5113724;28;20309;-81
2020/12/13 07:36:12;;;;;;;16.70;10.65;;;9.30;99.90;;;;;;5113661;27;20199;-82
2020/12/13 07:38:40;;;;;;;16.35;10.65;;;9.40;99.90;;;;;;5116543;27;20212;-81
2020/12/13 07:41:14;;;;;;;17.38;10.63;;;9.40;99.90;;;;;;5122011;27;20671;-81
2020/12/13 07:44:00;;;;;;;21.88;14.48;;;9.40;99.90;;;;;;5112992;27;20655;-80
2020/12/13 07:46:27;;;;;;;18.92;12.70;;;9.30;99.90;;;;;;5130704;27;20203;-79
2020/12/13 07:49:05;;;;;;;18.83;13.35;;;9.30;99.90;;;;;;5119356;27;20219;-80
2020/12/13 07:51:32;;;;;;;20.85;12.82;;;9.30;99.90;;;;;;5133382;27;20941;-80
2020/12/13 07:54:10;;;;;;;19.80;13.60;;;9.30;99.90;;;;;;5121723;27;20206;-79
2020/12/13 07:56:36;;;;;;;20.58;13.90;;;9.30;99.90;;;;;;5113097;28;20682;-80
2020/12/13 07:59:11;;;;;;;19.67;13.05;;;9.40;99.90;;;;;;5125570;27;20200;-80
2020/12/13 08:01:38;;;;;;;20.92;11.98;;;9.30;99.90;;;;;;5125119;27;20193;-77
2020/12/13 08:04:04;;;;;;;21.65;13.20;;;9.40;99.90;;;;;;5113226;28;20200;-77
2020/12/13 08:06:30;;;;;;;20.95;12.98;;;9.40;99.90;;;;;;5131936;27;20539;-77
2020/12/13 08:08:57;;;;;;;19.35;13.52;;;9.30;99.90;;;;;;5122698;27;20197;-76
2020/12/13 08:11:24;;;;;;;17.55;12.10;;;9.40;99.90;;;;;;5113085;27;20195;-77
2020/12/13 08:13:52;;;;;;;18.42;12.38;;;9.40;99.90;;;;;;5130910;27;20654;-77
2020/12/13 08:16:18;;;;;;;18.90;12.32;;;9.40;99.90;;;;;;5123672;27;20196;-77
2020/12/13 08:18:46;;;;;;;19.52;12.05;;;9.40;99.90;;;;;;5121528;27;20271;-77
2020/12/13 08:21:19;;;;;;;17.75;12.25;;;9.40;99.90;;;;;;5127715;27;20638;-77
2020/12/13 08:23:48;;;;;;;17.73;11.30;;;9.40;99.90;;;;;;5132019;27;20287;-77
2020/12/13 08:26:16;;;;;;;19.98;11.98;;;9.40;99.90;;;;;;5116671;27;20361;-75
2020/12/13 08:28:46;;;;;;;18.48;11.98;;;9.40;99.90;;;;;;5113895;27;20196;-75
2020/12/13 08:31:16;;;;;;;18.38;10.77;;;9.40;99.90;;;;;;5129090;27;20206;-76
2020/12/13 08:33:43;;;;;;;21.92;13.00;;;9.40;99.90;;;;;;5132930;27;20214;-76
2020/12/13 08:36:19;;;;;;;19.05;13.32;;;9.40;99.90;;;;;;5113016;27;20625;-77
2020/12/13 08:38:46;;;;;;;20.45;13.43;;;9.40;99.90;;;;;;5112560;27;20239;-76
2020/12/13 08:41:24;;;;;;;20.88;12.15;;;9.40;99.90;;;;;;5119978;27;20300;-76
2020/12/13 08:43:51;;;;;;;17.80;12.90;;;9.40;99.90;;;;;;5118468;27;20207;-75
2020/12/13 08:46:31;;;;;;;20.65;13.60;;;9.40;99.90;;;;;;5128622;27;20202;-76
2020/12/13 08:48:57;;;;;;;22.10;13.63;;;9.40;99.90;;;;;;5114544;27;20345;-77
2020/12/13 08:51:26;;;;;;;19.77;14.00;;;9.40;99.90;;;;;;5124851;27;20192;-76
2020/12/13 08:53:57;;;;;;;17.02;10.40;;;9.40;99.90;;;;;;5132011;27;20192;-77
2020/12/13 08:56:31;;;;;;;18.70;11.23;;;9.40;99.90;;;;;;5132389;27;20218;-77
2020/12/13 08:58:59;;;;;;;16.27;10.25;;;9.40;99.90;;;;;;5130522;27;20187;-77
2020/12/13 09:01:28;;;;;;;17.40;11.65;;;9.40;99.90;;;;;;5132813;27;20261;-77
2020/12/13 09:03:55;;;;;;;22.25;12.85;;;9.40;99.90;;;;;;5129032;27;20235;-77
2020/12/13 09:06:29;;;;;;;15.00;11.40;;;9.40;99.90;;;;;;5130257;28;20196;-77
2020/12/13 09:09:06;;;;;;;17.52;11.13;;;9.40;99.90;;;;;;5118318;28;20196;-77
2020/12/13 09:11:33;;;;;;;26.50;14.80;;;9.50;99.90;;;;;;5116012;28;20203;-79
2020/12/13 09:14:00;;;;;;;20.58;12.27;;;9.50;99.90;;;;;;5117499;27;20188;-79
2020/12/13 09:16:28;;;;;;;17.38;12.73;;;9.50;99.90;;;;;;5130410;27;20196;-80
2020/12/13 09:19:06;;;;;;;20.27;14.85;;;9.50;99.90;;;;;;5114780;28;20200;-80
2020/12/13 09:21:57;;;;;;;22.02;12.90;;;9.50;99.90;;;;;;5124589;28;20196;-79
2020/12/13 09:24:25;;;;;;;16.48;13.57;;;9.50;99.90;;;;;;5101386;28;20188;-79
2020/12/13 09:27:06;;;;;;;15.05;11.20;;;9.50;99.90;;;;;;5111490;28;20199;-79
2020/12/13 09:29:35;;;;;;;18.05;13.10;;;9.50;99.90;;;;;;5111924;28;20203;-79
2020/12/13 09:32:03;;;;;;;18.08;13.13;;;9.50;99.90;;;;;;5112065;28;20193;-79
2020/12/13 09:34:29;;;;;;;19.42;12.63;;;9.50;99.90;;;;;;5111793;28;20201;-79
2020/12/13 09:36:56;;;;;;;17.67;12.75;;;9.50;99.90;;;;;;5114709;27;20196;-80
2020/12/13 09:39:22;;;;;;;17.05;12.40;;;9.50;99.90;;;;;;5136230;27;20265;-80
2020/12/13 09:41:49;;;;;;;19.38;12.55;;;9.50;99.90;;;;;;5123462;27;20208;-79
2020/12/13 09:44:15;;;;;;;17.67;11.93;;;9.50;99.90;;;;;;5121153;27;20625;-79
2020/12/13 09:46:42;;;;;;;18.00;14.07;;;9.50;99.90;;;;;;5145686;27;20190;-79
2020/12/13 09:49:08;;;;;;;19.02;12.93;;;9.60;99.90;;;;;;5132623;27;20211;-79
2020/12/13 09:51:34;;;;;;;18.33;13.27;;;9.60;99.90;;;;;;5139748;27;20207;-79
2020/12/13 09:54:01;;;;;;;17.25;13.63;;;9.60;99.90;;;;;;5121399;27;20193;-80
2020/12/13 09:56:27;;;;;;;21.50;15.95;;;9.60;99.90;;;;;;5128069;27;20253;-79
2020/12/13 09:58:53;;;;;;;19.45;12.88;;;9.60;99.90;;;;;;5120416;27;20524;-79
2020/12/13 10:01:20;;;;;;;16.17;12.07;;;9.60;99.90;;;;;;5129001;27;20228;-79
2020/12/13 10:03:49;;;;;;;19.75;14.45;;;9.60;99.90;;;;;;5116259;27;20207;-80
2020/12/13 10:09:16;;;;;;;20.95;14.15;;;9.60;99.90;;;;;;5081652;28;20183;-80
2020/12/13 10:11:44;;;;;;;19.70;14.65;;;9.60;99.90;;;;;;5072419;28;20634;-79
2020/12/13 10:14:11;;;;;;;24.17;14.63;;;9.60;99.90;;;;;;5094056;27;20230;-79
2020/12/13 10:16:38;;;;;;;23.05;15.45;;;9.60;99.90;;;;;;5126528;27;20203;-79
2020/12/13 10:19:05;;;;;;;19.42;15.18;;;9.60;99.90;;;;;;5115215;28;20197;-79
2020/12/13 10:21:33;;;;;;;21.08;14.38;;;9.60;99.90;;;;;;5127618;27;20287;-79
2020/12/13 10:24:00;;;;;;;17.88;14.20;;;9.60;99.90;;;;;;5118521;27;20207;-79
2020/12/13 10:26:28;;;;;;;17.80;13.02;;;9.60;99.90;;;;;;5113385;27;20193;-78
2020/12/13 10:28:56;;;;;;;18.50;13.32;;;9.60;99.90;;;;;;5121280;27;20228;-80
2020/12/13 10:31:27;;;;;;;18.08;13.70;;;9.60;99.90;;;;;;5119448;27;20188;-79
2020/12/13 10:33:53;;;;;;;21.83;13.88;;;9.60;99.90;;;;;;5145547;27;20584;-79
2020/12/13 10:36:20;;;;;;;21.90;15.40;;;9.60;99.90;;;;;;5131588;27;20188;-80
2020/12/13 10:38:48;;;;;;;23.23;14.45;;;9.60;99.90;;;;;;5118849;27;20231;-79
2020/12/13 10:41:15;;;;;;;22.40;15.40;;;9.60;99.90;;;;;;5132249;27;20220;-79
2020/12/13 10:43:41;;;;;;;22.48;15.02;;;9.60;99.90;;;;;;5137871;27;20197;-79
2020/12/13 10:46:08;;;;;;;22.23;14.95;;;9.60;99.90;;;;;;5116454;27;20192;-79
2020/12/13 10:48:34;;;;;;;21.90;14.65;;;9.70;99.90;;;;;;5113068;27;20196;-79
2020/12/13 10:51:01;;;;;;;20.98;13.63;;;9.70;99.90;;;;;;5114623;28;20207;-78
2020/12/13 10:53:28;;;;;;;17.50;13.20;;;9.70;99.90;;;;;;5114074;27;20215;-79
2020/12/13 10:55:54;;;;;;;19.13;14.32;;;9.70;99.90;;;;;;5114222;28;20199;-79
2020/12/13 10:58:21;;;;;;;17.55;13.50;;;9.70;99.90;;;;;;5114370;27;20221;-79
2020/12/13 11:00:47;;;;;;;18.13;14.05;;;9.60;99.90;;;;;;5115190;27;20303;-80
2020/12/13 11:03:14;;;;;;;22.88;14.02;;;9.70;99.90;;;;;;5128385;27;20195;-79
2020/12/13 11:05:42;;;;;;;20.40;12.50;;;9.70;99.90;;;;;;5129635;27;20196;-80
2020/12/13 11:08:08;;;;;;;18.35;14.23;;;9.70;99.90;;;;;;5122531;27;20192;-78
2020/12/13 11:10:35;;;;;;;22.58;14.48;;;9.70;99.90;;;;;;5124642;27;20189;-79
2020/12/13 11:13:01;;;;;;;17.50;14.10;;;9.70;99.90;;;;;;5155324;27;20195;-79
2020/12/13 11:15:27;;;;;;;14.70;12.23;;;9.70;99.90;;;;;;5146573;27;20637;-79
2020/12/13 11:17:54;;;;;;;15.90;12.85;;;9.70;99.90;;;;;;5134319;27;20543;-79
2020/12/13 11:20:20;;;;;;;18.55;14.10;;;9.70;99.90;;;;;;5117491;27;20220;-79
2020/12/13 11:22:46;;;;;;;19.98;14.70;;;9.70;99.90;;;;;;5113766;28;20522;-79
2020/12/13 11:25:13;;;;;;;15.00;12.77;;;9.70;99.90;;;;;;5113809;28;20189;-79
2020/12/13 11:27:40;;;;;;;20.70;12.57;;;9.70;99.90;;;;;;5131799;27;20209;-79
2020/12/13 11:30:10;;;;;;;16.80;13.00;;;9.80;99.90;;;;;;5153556;27;20642;-78
2020/12/13 11:32:36;;;;;;;15.82;12.32;;;9.80;99.90;;;;;;5126453;27;20197;-78
2020/12/13 11:35:02;;;;;;;15.70;12.77;;;9.80;99.90;;;;;;5113843;28;20506;-79
2020/12/13 11:37:29;;;;;;;19.33;13.65;;;9.80;99.90;;;;;;5121635;27;20188;-79
2020/12/13 11:39:56;;;;;;;15.60;12.15;;;9.80;99.90;;;;;;5120012;27;20225;-79
2020/12/13 11:42:23;;;;;;;15.60;11.10;;;9.80;99.90;;;;;;5121930;27;20200;-81
2020/12/13 11:44:50;;;;;;;14.45;11.88;;;9.80;99.90;;;;;;5130522;27;20636;-85
2020/12/13 11:47:17;;;;;;;13.45;11.48;;;9.80;99.90;;;;;;5134052;27;20647;-78
2020/12/13 11:49:43;;;;;;;15.32;12.88;;;9.80;99.90;;;;;;5125874;27;20199;-78
2020/12/13 11:52:10;;;;;;;14.43;11.98;;;9.80;99.90;;;;;;5120949;27;20200;-78
2020/12/13 11:54:36;;;;;;;15.55;11.98;;;9.80;99.90;;;;;;5135625;27;20204;-77
2020/12/13 11:57:03;;;;;;;11.65;9.95;;;9.90;99.90;;;;;;5131342;27;20192;-77
2020/12/13 11:59:29;;;;;;;15.98;12.68;;;9.80;99.90;;;;;;5151295;27;20311;-76
2020/12/13 12:01:57;;;;;;;13.45;10.48;;;9.90;99.90;;;;;;5129593;27;20196;-78
2020/12/13 12:04:23;;;;;;;18.38;12.48;;;9.90;99.90;;;;;;5133457;27;20207;-76
2020/12/13 12:06:50;;;;;;;14.85;11.60;;;9.90;99.90;;;;;;5124019;27;20196;-77
2020/12/13 12:09:17;;;;;;;16.20;11.00;;;9.90;99.90;;;;;;5122211;27;20196;-76
2020/12/13 12:11:44;;;;;;;14.15;11.15;;;9.90;99.90;;;;;;5133505;27;20200;-76
2020/12/13 12:14:11;;;;;;;13.27;11.63;;;9.90;99.90;;;;;;5121766;27;20819;-76
2020/12/13 12:16:38;;;;;;;13.65;10.70;;;9.90;99.90;;;;;;5112893;28;20212;-75
2020/12/13 12:19:06;;;;;;;16.05;11.90;;;9.90;99.90;;;;;;5112276;27;20211;-79
2020/12/13 12:21:34;;;;;;;12.25;10.10;;;9.90;99.90;;;;;;5116633;27;20759;-78
2020/12/13 12:24:00;;;;;;;12.85;10.60;;;9.90;99.90;;;;;;5133346;27;20196;-77
2020/12/13 12:26:30;;;;;;;14.63;11.93;;;9.90;99.90;;;;;;5133551;27;20643;-77
2020/12/13 12:28:57;;;;;;;12.20;10.90;;;9.90;99.90;;;;;;5119264;27;20211;-78
2020/12/13 12:31:24;;;;;;;11.93;9.65;;;9.90;99.90;;;;;;5128393;27;20204;-77
2020/12/13 12:33:50;;;;;;;12.98;9.80;;;9.90;99.90;;;;;;5132910;27;20233;-76
2020/12/13 12:36:19;;;;;;;12.75;11.45;;;9.90;99.90;;;;;;5122017;27;20207;-76
2020/12/13 12:38:46;;;;;;;12.98;10.15;;;9.90;99.90;;;;;;5132601;27;20342;-75
2020/12/13 12:41:13;;;;;;;13.23;9.65;;;9.90;99.90;;;;;;5123682;27;20207;-76
2020/12/13 12:43:40;;;;;;;14.07;10.55;;;9.90;99.90;;;;;;5131757;27;20196;-76
2020/12/13 12:46:07;;;;;;;10.07;9.15;;;9.90;99.90;;;;;;5114653;27;20208;-76
2020/12/13 12:48:33;;;;;;;13.88;9.20;;;9.90;99.90;;;;;;5122197;27;20490;-76
2020/12/13 12:51:01;;;;;;;10.85;8.65;;;10.00;99.90;;;;;;5112406;28;20202;-80
2020/12/13 12:53:28;;;;;;;9.85;8.35;;;10.00;99.90;;;;;;5112308;28;20269;-76